sensor_id;sensor_type;location;lat;lon;timestamp;temperature;humidity
62991;DHT22;49084;48.204;16.202;2023-04-03T00:01:27;4.90;99.90
62991;DHT22;49084;48.204;16.202;2023-04-03T00:03:54;5.00;99.90
62991;DHT22;49084;48.204;16.202;2023-04-03T00:06:20;4.90;99.90
62991;DHT22;49084;48.204;16.202;2023-04-03T00:08:46;5.00;99.90
62991;DHT22;49084;48.204;16.202;2023-04-03T00:11:11;5.00;99.90
62991;DHT22;49084;48.204;16.202;2023-04-03T00:13:38;5.00;99.90
62991;DHT22;49084;48.204;16.202;2023-04-03T00:16:04;5.00;99.90
62991;DHT22;49084;48.204;16.202;2023-04-03T00:18:30;5.00;99.90
62991;DHT22;49084;48.204;16.202;2023-04-03T00:20:56;5.00;99.90
62991;DHT22;49084;48.204;16.202;2023-04-03T00:23:21;4.90;99.90
62991;DHT22;49084;48.204;16.202;2023-04-03T00:25:50;5.00;99.90
62991;DHT22;49084;48.204;16.202;2023-04-03T00:28:16;5.00;99.90
62991;DHT22;49084;48.204;16.202;2023-04-03T00:30:41;5.00;99.90
62991;DHT22;49084;48.204;16.202;2023-04-03T00:33:08;5.00;99.90
62991;DHT22;49084;48.204;16.202;2023-04-03T00:35:35;4.90;99.90
62991;DHT22;49084;48.204;16.202;2023-04-03T00:38:00;5.00;99.90
62991;DHT22;49084;48.204;16.202;2023-04-03T00:40:27;4.90;99.90
62991;DHT22;49084;48.204;16.202;2023-04-03T00:42:58;4.90;99.90
62991;DHT22;49084;48.204;16.202;2023-04-03T00:47:54;4.90;99.90
62991;DHT22;49084;48.204;16.202;2023-04-03T00:50:20;4.90;99.90
62991;DHT22;49084;48.204;16.202;2023-04-03T00:52:46;4.90;99.90
62991;DHT22;49084;48.204;16.202;2023-04-03T00:55:14;4.90;99.90
62991;DHT22;49084;48.204;16.202;2023-04-03T00:57:41;4.90;99.90
62991;DHT22;49084;48.204;16.202;2023-04-03T01:00:11;4.90;99.90
62991;DHT22;49084;48.204;16.202;2023-04-03T01:02:38;4.90;99.90
62991;DHT22;49084;48.204;16.202;2023-04-03T01:05:06;4.90;99.90
62991;DHT22;49084;48.204;16.202;2023-04-03T01:07:32;4.90;99.90
62991;DHT22;49084;48.204;16.202;2023-04-03T01:10:07;4.90;99.90
62991;DHT22;49084;48.204;16.202;2023-04-03T01:12:35;4.90;99.90
62991;DHT22;49084;48.204;16.202;2023-04-03T01:15:14;4.90;99.90
62991;DHT22;49084;48.204;16.202;2023-04-03T01:25:49;4.90;99.90
62991;DHT22;49084;48.204;16.202;2023-04-03T01:28:24;4.90;99.90
62991;DHT22;49084;48.204;16.202;2023-04-03T01:34:02;4.90;99.90
62991;DHT22;49084;48.204;16.202;2023-04-03T01:36:30;4.80;99.90
62991;DHT22;49084;48.204;16.202;2023-04-03T01:38:57;4.80;99.90
62991;DHT22;49084;48.204;16.202;2023-04-03T01:41:24;4.80;99.90
62991;DHT22;49084;48.204;16.202;2023-04-03T01:43:51;4.80;99.90
62991;DHT22;49084;48.204;16.202;2023-04-03T01:46:18;4.80;99.90
62991;DHT22;49084;48.204;16.202;2023-04-03T01:48:44;4.80;99.90
62991;DHT22;49084;48.204;16.202;2023-04-03T01:51:10;4.80;99.90
62991;DHT22;49084;48.204;16.202;2023-04-03T01:53:36;4.80;99.90
62991;DHT22;49084;48.204;16.202;2023-04-03T01:56:01;4.80;99.90
62991;DHT22;49084;48.204;16.202;2023-04-03T01:58:27;4.80;99.90
62991;DHT22;49084;48.204;16.202;2023-04-03T02:00:53;4.80;99.90
62991;DHT22;49084;48.204;16.202;2023-04-03T02:03:19;4.80;99.90
62991;DHT22;49084;48.204;16.202;2023-04-03T02:05:45;4.80;99.90
62991;DHT22;49084;48.204;16.202;2023-04-03T02:08:11;4.80;99.90
62991;DHT22;49084;48.204;16.202;2023-04-03T02:10:37;4.80;99.90
62991;DHT22;49084;48.204;16.202;2023-04-03T02:13:03;4.80;99.90
62991;DHT22;49084;48.204;16.202;2023-04-03T02:15:29;4.70;99.90
62991;DHT22;49084;48.204;16.202;2023-04-03T02:17:55;4.70;99.90
62991;DHT22;49084;48.204;16.202;2023-04-03T02:20:20;4.80;99.90
62991;DHT22;49084;48.204;16.202;2023-04-03T02:22:46;4.70;99.90
62991;DHT22;49084;48.204;16.202;2023-04-03T02:25:12;4.70;99.90
62991;DHT22;49084;48.204;16.202;2023-04-03T02:27:38;4.80;99.90
62991;DHT22;49084;48.204;16.202;2023-04-03T02:30:04;4.80;99.90
62991;DHT22;49084;48.204;16.202;2023-04-03T02:32:31;4.80;99.90
62991;DHT22;49084;48.204;16.202;2023-04-03T02:34:56;4.80;99.90
62991;DHT22;49084;48.204;16.202;2023-04-03T02:37:22;4.80;99.90
62991;DHT22;49084;48.204;16.202;2023-04-03T02:39:48;4.80;99.90
62991;DHT22;49084;48.204;16.202;2023-04-03T02:42:14;4.80;99.90
62991;DHT22;49084;48.204;16.202;2023-04-03T02:44:39;4.80;99.90
62991;DHT22;49084;48.204;16.202;2023-04-03T02:47:05;4.80;99.90
62991;DHT22;49084;48.204;16.202;2023-04-03T02:49:31;4.80;99.90
62991;DHT22;49084;48.204;16.202;2023-04-03T02:51:57;4.80;99.90
62991;DHT22;49084;48.204;16.202;2023-04-03T02:54:22;4.80;99.90
62991;DHT22;49084;48.204;16.202;2023-04-03T02:56:50;4.80;99.90
62991;DHT22;49084;48.204;16.202;2023-04-03T02:59:15;4.80;99.90
62991;DHT22;49084;48.204;16.202;2023-04-03T03:01:41;4.80;99.90
62991;DHT22;49084;48.204;16.202;2023-04-03T03:04:07;4.80;99.90
62991;DHT22;49084;48.204;16.202;2023-04-03T03:06:33;4.80;99.90
62991;DHT22;49084;48.204;16.202;2023-04-03T03:08:58;4.80;99.90
62991;DHT22;49084;48.204;16.202;2023-04-03T03:11:24;4.80;99.90
62991;DHT22;49084;48.204;16.202;2023-04-03T03:13:50;4.80;99.90
62991;DHT22;49084;48.204;16.202;2023-04-03T03:16:16;4.80;99.90
62991;DHT22;49084;48.204;16.202;2023-04-03T03:18:42;4.80;99.90
62991;DHT22;49084;48.204;16.202;2023-04-03T03:21:09;4.80;99.90
62991;DHT22;49084;48.204;16.202;2023-04-03T03:23:36;4.80;99.90
62991;DHT22;49084;48.204;16.202;2023-04-03T03:26:05;4.80;99.90
62991;DHT22;49084;48.204;16.202;2023-04-03T03:28:32;4.80;99.90
62991;DHT22;49084;48.204;16.202;2023-04-03T03:30:58;4.80;99.90
62991;DHT22;49084;48.204;16.202;2023-04-03T03:33:25;4.80;99.90
62991;DHT22;49084;48.204;16.202;2023-04-03T03:35:52;4.80;99.90
62991;DHT22;49084;48.204;16.202;2023-04-03T03:38:18;4.80;99.90
62991;DHT22;49084;48.204;16.202;2023-04-03T03:40:44;4.80;99.90
62991;DHT22;49084;48.204;16.202;2023-04-03T03:43:09;4.80;99.90
62991;DHT22;49084;48.204;16.202;2023-04-03T03:45:35;4.80;99.90
62991;DHT22;49084;48.204;16.202;2023-04-03T03:48:02;4.80;99.90
62991;DHT22;49084;48.204;16.202;2023-04-03T03:50:27;4.80;99.90
62991;DHT22;49084;48.204;16.202;2023-04-03T03:52:53;4.80;99.90
62991;DHT22;49084;48.204;16.202;2023-04-03T03:55:19;4.80;99.90
62991;DHT22;49084;48.204;16.202;2023-04-03T03:57:45;4.80;99.90
62991;DHT22;49084;48.204;16.202;2023-04-03T04:00:11;4.80;99.90
62991;DHT22;49084;48.204;16.202;2023-04-03T04:02:37;4.80;99.90
62991;DHT22;49084;48.204;16.202;2023-04-03T04:05:02;4.80;99.90
62991;DHT22;49084;48.204;16.202;2023-04-03T04:07:28;4.80;99.90
62991;DHT22;49084;48.204;16.202;2023-04-03T04:09:54;4.80;99.90
62991;DHT22;49084;48.204;16.202;2023-04-03T04:12:20;4.80;99.90
62991;DHT22;49084;48.204;16.202;2023-04-03T04:14:46;4.80;99.90
62991;DHT22;49084;48.204;16.202;2023-04-03T04:17:15;4.80;99.90
62991;DHT22;49084;48.204;16.202;2023-04-03T04:19:41;4.80;99.90
62991;DHT22;49084;48.204;16.202;2023-04-03T04:22:07;4.80;99.90
62991;DHT22;49084;48.204;16.202;2023-04-03T04:24:32;4.80;99.90
62991;DHT22;49084;48.204;16.202;2023-04-03T04:26:58;4.80;99.90
62991;DHT22;49084;48.204;16.202;2023-04-03T04:29:24;4.80;99.90
62991;DHT22;49084;48.204;16.202;2023-04-03T04:31:50;4.80;99.90
62991;DHT22;49084;48.204;16.202;2023-04-03T04:34:15;4.80;99.90
62991;DHT22;49084;48.204;16.202;2023-04-03T04:36:41;4.80;99.90
62991;DHT22;49084;48.204;16.202;2023-04-03T04:39:07;4.80;99.90
62991;DHT22;49084;48.204;16.202;2023-04-03T04:41:33;4.70;99.90
62991;DHT22;49084;48.204;16.202;2023-04-03T04:44:00;4.70;99.90
62991;DHT22;49084;48.204;16.202;2023-04-03T04:46:26;4.70;99.90
62991;DHT22;49084;48.204;16.202;2023-04-03T04:48:52;4.70;99.90
62991;DHT22;49084;48.204;16.202;2023-04-03T04:51:18;4.70;99.90
62991;DHT22;49084;48.204;16.202;2023-04-03T04:53:43;4.70;99.90
62991;DHT22;49084;48.204;16.202;2023-04-03T04:56:09;4.70;99.90
62991;DHT22;49084;48.204;16.202;2023-04-03T04:58:36;4.60;99.90
62991;DHT22;49084;48.204;16.202;2023-04-03T05:01:03;4.70;99.90
62991;DHT22;49084;48.204;16.202;2023-04-03T05:03:30;4.70;99.90
62991;DHT22;49084;48.204;16.202;2023-04-03T05:05:56;4.70;99.90
62991;DHT22;49084;48.204;16.202;2023-04-03T05:08:21;4.70;99.90
62991;DHT22;49084;48.204;16.202;2023-04-03T05:10:47;4.70;99.90
62991;DHT22;49084;48.204;16.202;2023-04-03T05:13:14;4.70;99.90
62991;DHT22;49084;48.204;16.202;2023-04-03T05:15:40;4.70;99.90
62991;DHT22;49084;48.204;16.202;2023-04-03T05:18:06;4.70;99.90
62991;DHT22;49084;48.204;16.202;2023-04-03T05:20:32;4.70;99.90
62991;DHT22;49084;48.204;16.202;2023-04-03T05:22:58;4.70;99.90
62991;DHT22;49084;48.204;16.202;2023-04-03T05:25:24;4.70;99.90
62991;DHT22;49084;48.204;16.202;2023-04-03T05:27:50;4.70;99.90
62991;DHT22;49084;48.204;16.202;2023-04-03T05:30:16;4.70;99.90
62991;DHT22;49084;48.204;16.202;2023-04-03T05:32:41;4.60;99.90
62991;DHT22;49084;48.204;16.202;2023-04-03T05:35:08;4.60;99.90
62991;DHT22;49084;48.204;16.202;2023-04-03T05:37:34;4.60;99.90
62991;DHT22;49084;48.204;16.202;2023-04-03T05:40:00;4.60;99.90
62991;DHT22;49084;48.204;16.202;2023-04-03T05:42:26;4.70;99.90
62991;DHT22;49084;48.204;16.202;2023-04-03T05:44:51;4.70;99.90
62991;DHT22;49084;48.204;16.202;2023-04-03T05:47:18;4.70;99.90
62991;DHT22;49084;48.204;16.202;2023-04-03T05:49:44;4.70;99.90
62991;DHT22;49084;48.204;16.202;2023-04-03T05:52:44;4.70;99.90
62991;DHT22;49084;48.204;16.202;2023-04-03T05:55:11;4.80;99.90
62991;DHT22;49084;48.204;16.202;2023-04-03T05:57:36;4.80;99.90
62991;DHT22;49084;48.204;16.202;2023-04-03T06:00:04;4.80;99.90
62991;DHT22;49084;48.204;16.202;2023-04-03T06:02:31;4.80;99.90
62991;DHT22;49084;48.204;16.202;2023-04-03T06:04:57;4.90;99.90
62991;DHT22;49084;48.204;16.202;2023-04-03T06:07:24;4.90;99.90
62991;DHT22;49084;48.204;16.202;2023-04-03T06:09:54;4.90;99.90
62991;DHT22;49084;48.204;16.202;2023-04-03T06:12:21;5.00;99.90
62991;DHT22;49084;48.204;16.202;2023-04-03T06:14:47;4.90;99.90
62991;DHT22;49084;48.204;16.202;2023-04-03T06:17:14;4.80;99.90
62991;DHT22;49084;48.204;16.202;2023-04-03T06:19:41;4.80;99.90
62991;DHT22;49084;48.204;16.202;2023-04-03T06:22:07;4.70;99.90
62991;DHT22;49084;48.204;16.202;2023-04-03T06:24:32;4.70;99.90
62991;DHT22;49084;48.204;16.202;2023-04-03T06:26:58;4.70;99.90
62991;DHT22;49084;48.204;16.202;2023-04-03T06:29:24;4.70;99.90
62991;DHT22;49084;48.204;16.202;2023-04-03T06:31:51;4.70;99.90
62991;DHT22;49084;48.204;16.202;2023-04-03T06:34:17;4.70;99.90
62991;DHT22;49084;48.204;16.202;2023-04-03T06:36:44;4.70;99.90
62991;DHT22;49084;48.204;16.202;2023-04-03T06:39:16;4.80;99.90
62991;DHT22;49084;48.204;16.202;2023-04-03T06:41:42;4.80;99.90
62991;DHT22;49084;48.204;16.202;2023-04-03T06:44:08;4.90;99.90
62991;DHT22;49084;48.204;16.202;2023-04-03T06:46:37;4.90;99.90
62991;DHT22;49084;48.204;16.202;2023-04-03T06:49:03;5.00;99.90
62991;DHT22;49084;48.204;16.202;2023-04-03T06:51:30;5.00;99.90
62991;DHT22;49084;48.204;16.202;2023-04-03T06:53:58;5.10;99.90
62991;DHT22;49084;48.204;16.202;2023-04-03T06:56:24;5.00;99.90
62991;DHT22;49084;48.204;16.202;2023-04-03T06:58:51;5.00;99.90
62991;DHT22;49084;48.204;16.202;2023-04-03T07:01:17;5.00;99.90
62991;DHT22;49084;48.204;16.202;2023-04-03T07:03:44;5.00;99.90
62991;DHT22;49084;48.204;16.202;2023-04-03T07:06:12;5.10;99.90
62991;DHT22;49084;48.204;16.202;2023-04-03T07:08:39;5.10;99.90
62991;DHT22;49084;48.204;16.202;2023-04-03T07:11:05;5.10;99.90
62991;DHT22;49084;48.204;16.202;2023-04-03T07:13:32;5.10;99.90
62991;DHT22;49084;48.204;16.202;2023-04-03T07:15:58;5.10;99.90
62991;DHT22;49084;48.204;16.202;2023-04-03T07:18:24;5.00;99.90
62991;DHT22;49084;48.204;16.202;2023-04-03T07:20:50;5.00;99.90
62991;DHT22;49084;48.204;16.202;2023-04-03T07:23:16;5.10;99.90
62991;DHT22;49084;48.204;16.202;2023-04-03T07:25:46;5.20;99.90
62991;DHT22;49084;48.204;16.202;2023-04-03T07:28:12;5.20;99.90
62991;DHT22;49084;48.204;16.202;2023-04-03T07:30:52;5.20;99.90
62991;DHT22;49084;48.204;16.202;2023-04-03T07:33:20;5.30;99.90
62991;DHT22;49084;48.204;16.202;2023-04-03T07:35:46;5.40;99.90
62991;DHT22;49084;48.204;16.202;2023-04-03T07:38:12;5.40;99.90
62991;DHT22;49084;48.204;16.202;2023-04-03T07:40:39;5.40;99.90
62991;DHT22;49084;48.204;16.202;2023-04-03T07:43:06;5.50;99.90
62991;DHT22;49084;48.204;16.202;2023-04-03T07:45:34;5.60;99.90
62991;DHT22;49084;48.204;16.202;2023-04-03T07:48:01;5.80;99.90
62991;DHT22;49084;48.204;16.202;2023-04-03T07:50:27;6.10;99.90
62991;DHT22;49084;48.204;16.202;2023-04-03T07:52:53;6.20;99.90
62991;DHT22;49084;48.204;16.202;2023-04-03T07:55:21;6.20;99.90
62991;DHT22;49084;48.204;16.202;2023-04-03T07:57:47;6.40;99.90
62991;DHT22;49084;48.204;16.202;2023-04-03T08:00:14;6.70;99.90
62991;DHT22;49084;48.204;16.202;2023-04-03T08:02:40;7.20;99.90
62991;DHT22;49084;48.204;16.202;2023-04-03T08:05:06;7.40;99.90
62991;DHT22;49084;48.204;16.202;2023-04-03T08:07:32;7.20;99.90
62991;DHT22;49084;48.204;16.202;2023-04-03T08:09:57;7.40;99.80
62991;DHT22;49084;48.204;16.202;2023-04-03T08:12:23;7.40;98.30
62991;DHT22;49084;48.204;16.202;2023-04-03T08:14:49;7.00;97.00
62991;DHT22;49084;48.204;16.202;2023-04-03T08:17:14;7.50;96.90
62991;DHT22;49084;48.204;16.202;2023-04-03T08:19:40;8.00;95.60
62991;DHT22;49084;48.204;16.202;2023-04-03T08:22:06;8.40;93.40
62991;DHT22;49084;48.204;16.202;2023-04-03T08:24:35;8.80;89.60
62991;DHT22;49084;48.204;16.202;2023-04-03T08:27:01;8.70;90.20
62991;DHT22;49084;48.204;16.202;2023-04-03T08:29:28;8.60;90.90
62991;DHT22;49084;48.204;16.202;2023-04-03T08:31:53;8.80;90.40
62991;DHT22;49084;48.204;16.202;2023-04-03T08:34:20;9.30;88.90
62991;DHT22;49084;48.204;16.202;2023-04-03T08:36:46;9.30;81.20
62991;DHT22;49084;48.204;16.202;2023-04-03T08:39:12;8.60;81.10
62991;DHT22;49084;48.204;16.202;2023-04-03T08:41:39;8.10;83.50
62991;DHT22;49084;48.204;16.202;2023-04-03T08:49:47;9.10;74.20
62991;DHT22;49084;48.204;16.202;2023-04-03T08:55:48;8.40;77.00
62991;DHT22;49084;48.204;16.202;2023-04-03T08:58:28;7.90;75.80
62991;DHT22;49084;48.204;16.202;2023-04-03T09:01:05;7.90;77.40
62991;DHT22;49084;48.204;16.202;2023-04-03T09:03:34;8.00;76.30
62991;DHT22;49084;48.204;16.202;2023-04-03T09:06:15;7.80;76.20
62991;DHT22;49084;48.204;16.202;2023-04-03T09:16:57;8.80;78.30
62991;DHT22;49084;48.204;16.202;2023-04-03T09:24:36;9.90;69.40
62991;DHT22;49084;48.204;16.202;2023-04-03T09:27:10;8.90;70.30
62991;DHT22;49084;48.204;16.202;2023-04-03T09:29:40;7.80;73.70
62991;DHT22;49084;48.204;16.202;2023-04-03T09:32:29;7.30;75.60
62991;DHT22;49084;48.204;16.202;2023-04-03T09:34:59;7.10;78.50
62991;DHT22;49084;48.204;16.202;2023-04-03T09:40:04;6.50;77.40
62991;DHT22;49084;48.204;16.202;2023-04-03T09:42:31;6.30;78.30
62991;DHT22;49084;48.204;16.202;2023-04-03T09:44:59;6.50;78.00
62991;DHT22;49084;48.204;16.202;2023-04-03T09:47:32;6.60;76.50
62991;DHT22;49084;48.204;16.202;2023-04-03T09:52:41;6.70;72.40
62991;DHT22;49084;48.204;16.202;2023-04-03T09:55:20;6.90;70.20
62991;DHT22;49084;48.204;16.202;2023-04-03T09:57:54;7.10;70.20
62991;DHT22;49084;48.204;16.202;2023-04-03T10:00:23;8.40;69.10
62991;DHT22;49084;48.204;16.202;2023-04-03T10:02:54;8.80;65.50
62991;DHT22;49084;48.204;16.202;2023-04-03T10:05:38;8.60;63.10
62991;DHT22;49084;48.204;16.202;2023-04-03T10:10:40;9.70;61.90
62991;DHT22;49084;48.204;16.202;2023-04-03T10:13:15;9.90;59.90
62991;DHT22;49084;48.204;16.202;2023-04-03T10:15:46;9.50;58.80
62991;DHT22;49084;48.204;16.202;2023-04-03T10:21:19;8.50;61.30
62991;DHT22;49084;48.204;16.202;2023-04-03T10:23:54;8.20;61.10
62991;DHT22;49084;48.204;16.202;2023-04-03T10:26:51;7.80;61.40
62991;DHT22;49084;48.204;16.202;2023-04-03T10:32:03;7.90;62.50
62991;DHT22;49084;48.204;16.202;2023-04-03T10:34:43;8.00;61.60
62991;DHT22;49084;48.204;16.202;2023-04-03T10:37:34;7.80;59.90
62991;DHT22;49084;48.204;16.202;2023-04-03T10:40:19;7.50;60.80
62991;DHT22;49084;48.204;16.202;2023-04-03T10:53:42;11.30;51.80
62991;DHT22;49084;48.204;16.202;2023-04-03T10:56:21;10.30;52.70
62991;DHT22;49084;48.204;16.202;2023-04-03T10:58:58;10.50;54.40
62991;DHT22;49084;48.204;16.202;2023-04-03T11:01:33;10.60;53.40
62991;DHT22;49084;48.204;16.202;2023-04-03T11:04:00;11.00;54.20
62991;DHT22;49084;48.204;16.202;2023-04-03T11:06:36;10.90;52.00
62991;DHT22;49084;48.204;16.202;2023-04-03T11:09:22;10.50;53.20
62991;DHT22;49084;48.204;16.202;2023-04-03T11:11:48;10.30;52.50
62991;DHT22;49084;48.204;16.202;2023-04-03T11:14:42;10.30;53.20
62991;DHT22;49084;48.204;16.202;2023-04-03T11:22:23;11.00;51.80
62991;DHT22;49084;48.204;16.202;2023-04-03T11:25:06;11.90;47.50
62991;DHT22;49084;48.204;16.202;2023-04-03T11:27:45;12.60;50.20
62991;DHT22;49084;48.204;16.202;2023-04-03T11:35:19;12.50;42.90
62991;DHT22;49084;48.204;16.202;2023-04-03T11:37:48;12.90;42.90
62991;DHT22;49084;48.204;16.202;2023-04-03T11:42:49;13.40;43.20
62991;DHT22;49084;48.204;16.202;2023-04-03T11:50:47;16.00;39.40
62991;DHT22;49084;48.204;16.202;2023-04-03T11:58:28;13.30;38.80
62991;DHT22;49084;48.204;16.202;2023-04-03T12:13:37;9.10;46.50
62991;DHT22;49084;48.204;16.202;2023-04-03T12:16:24;9.10;47.40
62991;DHT22;49084;48.204;16.202;2023-04-03T12:29:24;7.70;46.60
62991;DHT22;49084;48.204;16.202;2023-04-03T12:32:09;7.30;47.90
62991;DHT22;49084;48.204;16.202;2023-04-03T12:35:17;7.10;47.60
62991;DHT22;49084;48.204;16.202;2023-04-03T12:44:16;6.60;51.60
62991;DHT22;49084;48.204;16.202;2023-04-03T12:46:49;6.40;51.90
62991;DHT22;49084;48.204;16.202;2023-04-03T12:51:58;6.20;51.60
62991;DHT22;49084;48.204;16.202;2023-04-03T12:59:41;6.20;52.10
62991;DHT22;49084;48.204;16.202;2023-04-03T13:02:22;6.40;52.40
62991;DHT22;49084;48.204;16.202;2023-04-03T13:04:49;6.60;51.00
62991;DHT22;49084;48.204;16.202;2023-04-03T13:10:14;6.70;49.40
62991;DHT22;49084;48.204;16.202;2023-04-03T13:12:53;6.80;49.80
62991;DHT22;49084;48.204;16.202;2023-04-03T13:15:29;6.60;49.00
62991;DHT22;49084;48.204;16.202;2023-04-03T13:17:56;6.80;49.80
62991;DHT22;49084;48.204;16.202;2023-04-03T13:20:29;7.00;49.00
62991;DHT22;49084;48.204;16.202;2023-04-03T13:23:07;7.20;49.50
62991;DHT22;49084;48.204;16.202;2023-04-03T13:25:36;7.40;48.50
62991;DHT22;49084;48.204;16.202;2023-04-03T13:28:07;7.20;48.60
62991;DHT22;49084;48.204;16.202;2023-04-03T13:30:37;7.10;49.60
62991;DHT22;49084;48.204;16.202;2023-04-03T13:33:05;6.70;48.80
62991;DHT22;49084;48.204;16.202;2023-04-03T13:35:39;6.40;50.00
62991;DHT22;49084;48.204;16.202;2023-04-03T13:38:27;6.50;50.20
62991;DHT22;49084;48.204;16.202;2023-04-03T13:40:58;6.80;49.40
62991;DHT22;49084;48.204;16.202;2023-04-03T13:43:34;7.10;49.40
62991;DHT22;49084;48.204;16.202;2023-04-03T13:48:41;7.60;47.90
62991;DHT22;49084;48.204;16.202;2023-04-03T13:53:51;7.70;49.40
62991;DHT22;49084;48.204;16.202;2023-04-03T13:56:30;7.70;48.60
62991;DHT22;49084;48.204;16.202;2023-04-03T14:01:55;8.00;48.80
62991;DHT22;49084;48.204;16.202;2023-04-03T14:07:02;7.70;49.10
62991;DHT22;49084;48.204;16.202;2023-04-03T14:09:29;7.50;50.10
62991;DHT22;49084;48.204;16.202;2023-04-03T14:12:02;7.40;50.10
62991;DHT22;49084;48.204;16.202;2023-04-03T14:14:33;7.30;50.30
62991;DHT22;49084;48.204;16.202;2023-04-03T14:17:02;7.10;50.80
62991;DHT22;49084;48.204;16.202;2023-04-03T14:19:33;7.10;51.30
62991;DHT22;49084;48.204;16.202;2023-04-03T14:22:05;7.20;50.80
62991;DHT22;49084;48.204;16.202;2023-04-03T14:24:32;7.80;49.80
62991;DHT22;49084;48.204;16.202;2023-04-03T14:26:58;8.20;49.30
62991;DHT22;49084;48.204;16.202;2023-04-03T14:29:24;7.90;48.80
62991;DHT22;49084;48.204;16.202;2023-04-03T14:31:51;8.00;49.50
62991;DHT22;49084;48.204;16.202;2023-04-03T14:34:17;7.80;48.80
62991;DHT22;49084;48.204;16.202;2023-04-03T14:36:44;7.50;49.50
62991;DHT22;49084;48.204;16.202;2023-04-03T14:39:18;7.00;50.20
62991;DHT22;49084;48.204;16.202;2023-04-03T14:41:45;6.80;51.30
62991;DHT22;49084;48.204;16.202;2023-04-03T14:44:11;7.10;52.10
62991;DHT22;49084;48.204;16.202;2023-04-03T14:46:40;7.50;51.20
62991;DHT22;49084;48.204;16.202;2023-04-03T14:49:19;7.60;51.20
62991;DHT22;49084;48.204;16.202;2023-04-03T14:51:46;7.60;52.00
62991;DHT22;49084;48.204;16.202;2023-04-03T14:54:20;7.50;52.00
62991;DHT22;49084;48.204;16.202;2023-04-03T14:56:51;7.50;51.80
62991;DHT22;49084;48.204;16.202;2023-04-03T14:59:17;7.30;51.30
62991;DHT22;49084;48.204;16.202;2023-04-03T15:01:45;7.20;52.00
62991;DHT22;49084;48.204;16.202;2023-04-03T15:04:19;7.10;52.30
62991;DHT22;49084;48.204;16.202;2023-04-03T15:06:46;6.90;53.20
62991;DHT22;49084;48.204;16.202;2023-04-03T15:09:34;6.60;52.50
62991;DHT22;49084;48.204;16.202;2023-04-03T15:12:01;6.10;53.30
62991;DHT22;49084;48.204;16.202;2023-04-03T15:14:26;6.00;54.70
62991;DHT22;49084;48.204;16.202;2023-04-03T15:16:52;6.00;54.70
62991;DHT22;49084;48.204;16.202;2023-04-03T15:19:19;6.10;55.30
62991;DHT22;49084;48.204;16.202;2023-04-03T15:21:45;6.30;54.20
62991;DHT22;49084;48.204;16.202;2023-04-03T15:24:11;6.70;54.10
62991;DHT22;49084;48.204;16.202;2023-04-03T15:26:36;6.80;53.50
62991;DHT22;49084;48.204;16.202;2023-04-03T15:29:04;7.00;52.80
62991;DHT22;49084;48.204;16.202;2023-04-03T15:31:30;7.50;52.30
62991;DHT22;49084;48.204;16.202;2023-04-03T15:33:56;7.70;50.90
62991;DHT22;49084;48.204;16.202;2023-04-03T15:36:22;7.70;50.50
62991;DHT22;49084;48.204;16.202;2023-04-03T15:38:48;8.10;49.10
62991;DHT22;49084;48.204;16.202;2023-04-03T15:41:13;8.30;48.40
62991;DHT22;49084;48.204;16.202;2023-04-03T15:43:39;7.90;48.90
62991;DHT22;49084;48.204;16.202;2023-04-03T15:46:05;7.30;49.90
62991;DHT22;49084;48.204;16.202;2023-04-03T15:48:31;6.80;50.60
62991;DHT22;49084;48.204;16.202;2023-04-03T15:50:57;6.40;51.80
62991;DHT22;49084;48.204;16.202;2023-04-03T15:53:23;6.10;52.10
62991;DHT22;49084;48.204;16.202;2023-04-03T15:55:54;5.90;53.20
62991;DHT22;49084;48.204;16.202;2023-04-03T15:58:20;6.10;52.70
62991;DHT22;49084;48.204;16.202;2023-04-03T16:00:46;6.40;52.40
62991;DHT22;49084;48.204;16.202;2023-04-03T16:03:16;6.50;52.10
62991;DHT22;49084;48.204;16.202;2023-04-03T16:05:42;6.40;51.80
62991;DHT22;49084;48.204;16.202;2023-04-03T16:08:08;6.30;51.70
62991;DHT22;49084;48.204;16.202;2023-04-03T16:10:35;6.20;52.30
62991;DHT22;49084;48.204;16.202;2023-04-03T16:13:01;6.20;52.40
62991;DHT22;49084;48.204;16.202;2023-04-03T16:15:27;6.00;52.80
62991;DHT22;49084;48.204;16.202;2023-04-03T16:17:53;6.00;53.20
62991;DHT22;49084;48.204;16.202;2023-04-03T16:20:19;5.80;52.70
62991;DHT22;49084;48.204;16.202;2023-04-03T16:22:47;5.70;53.10
62991;DHT22;49084;48.204;16.202;2023-04-03T16:25:13;5.60;53.60
62991;DHT22;49084;48.204;16.202;2023-04-03T16:27:39;5.50;52.90
62991;DHT22;49084;48.204;16.202;2023-04-03T16:30:06;5.40;52.60
62991;DHT22;49084;48.204;16.202;2023-04-03T16:32:33;5.30;53.20
62991;DHT22;49084;48.204;16.202;2023-04-03T16:34:59;5.30;54.30
62991;DHT22;49084;48.204;16.202;2023-04-03T16:37:25;5.20;54.60
62991;DHT22;49084;48.204;16.202;2023-04-03T16:39:51;5.10;54.90
62991;DHT22;49084;48.204;16.202;2023-04-03T16:42:17;5.20;55.30
62991;DHT22;49084;48.204;16.202;2023-04-03T16:44:42;5.10;55.40
62991;DHT22;49084;48.204;16.202;2023-04-03T16:47:08;5.20;56.00
62991;DHT22;49084;48.204;16.202;2023-04-03T16:49:34;5.10;56.30
62991;DHT22;49084;48.204;16.202;2023-04-03T16:52:02;5.10;55.60
62991;DHT22;49084;48.204;16.202;2023-04-03T16:54:28;5.00;55.20
62991;DHT22;49084;48.204;16.202;2023-04-03T16:56:54;5.00;56.20
62991;DHT22;49084;48.204;16.202;2023-04-03T16:59:20;4.90;55.20
62991;DHT22;49084;48.204;16.202;2023-04-03T17:01:46;4.90;55.60
62991;DHT22;49084;48.204;16.202;2023-04-03T17:04:12;4.90;56.30
62991;DHT22;49084;48.204;16.202;2023-04-03T17:06:39;4.80;56.60
62991;DHT22;49084;48.204;16.202;2023-04-03T17:09:05;4.80;56.10
62991;DHT22;49084;48.204;16.202;2023-04-03T17:11:32;4.80;55.80
62991;DHT22;49084;48.204;16.202;2023-04-03T17:13:58;4.80;56.20
62991;DHT22;49084;48.204;16.202;2023-04-03T17:16:24;4.80;56.50
62991;DHT22;49084;48.204;16.202;2023-04-03T17:18:52;4.70;55.90
62991;DHT22;49084;48.204;16.202;2023-04-03T17:21:19;4.70;55.90
62991;DHT22;49084;48.204;16.202;2023-04-03T17:23:53;4.60;56.30
62991;DHT22;49084;48.204;16.202;2023-04-03T17:26:19;4.60;56.40
62991;DHT22;49084;48.204;16.202;2023-04-03T17:28:46;4.60;56.00
62991;DHT22;49084;48.204;16.202;2023-04-03T17:31:12;4.60;56.50
62991;DHT22;49084;48.204;16.202;2023-04-03T17:33:38;4.60;57.10
62991;DHT22;49084;48.204;16.202;2023-04-03T17:36:05;4.50;56.20
62991;DHT22;49084;48.204;16.202;2023-04-03T17:38:32;4.50;56.60
62991;DHT22;49084;48.204;16.202;2023-04-03T17:41:01;4.50;56.70
62991;DHT22;49084;48.204;16.202;2023-04-03T17:43:27;4.50;57.30
62991;DHT22;49084;48.204;16.202;2023-04-03T17:45:57;4.50;58.10
62991;DHT22;49084;48.204;16.202;2023-04-03T17:48:28;4.50;58.70
62991;DHT22;49084;48.204;16.202;2023-04-03T17:50:55;4.60;57.60
62991;DHT22;49084;48.204;16.202;2023-04-03T17:53:21;4.50;57.00